sensor_id;sensor_type;location;lat;lon;timestamp;temperature;humidity
11387;DHT22;5748;53.102;8.456;2023-04-06T00:02:06;6.70;31.70
11387;DHT22;5748;53.102;8.456;2023-04-06T00:04:33;6.60;31.70
11387;DHT22;5748;53.102;8.456;2023-04-06T00:07:01;6.60;31.70
11387;DHT22;5748;53.102;8.456;2023-04-06T00:09:29;6.60;32.50
11387;DHT22;5748;53.102;8.456;2023-04-06T00:11:56;6.50;31.90
11387;DHT22;5748;53.102;8.456;2023-04-06T00:14:42;6.50;32.20
11387;DHT22;5748;53.102;8.456;2023-04-06T00:17:09;6.50;33.10
11387;DHT22;5748;53.102;8.456;2023-04-06T00:19:36;8.40;33.40
11387;DHT22;5748;53.102;8.456;2023-04-06T00:22:04;6.40;32.00
11387;DHT22;5748;53.102;8.456;2023-04-06T00:24:31;9.10;35.20
11387;DHT22;5748;53.102;8.456;2023-04-06T00:26:58;6.30;32.30
11387;DHT22;5748;53.102;8.456;2023-04-06T00:29:25;6.70;32.90
11387;DHT22;5748;53.102;8.456;2023-04-06T00:31:52;7.00;32.90
11387;DHT22;5748;53.102;8.456;2023-04-06T00:34:19;6.20;33.10
11387;DHT22;5748;53.102;8.456;2023-04-06T00:36:46;7.60;34.50
11387;DHT22;5748;53.102;8.456;2023-04-06T00:39:15;6.10;32.50
11387;DHT22;5748;53.102;8.456;2023-04-06T00:41:46;7.90;34.00
11387;DHT22;5748;53.102;8.456;2023-04-06T00:44:16;6.10;32.90
11387;DHT22;5748;53.102;8.456;2023-04-06T00:46:49;6.20;32.70
11387;DHT22;5748;53.102;8.456;2023-04-06T00:49:16;6.00;33.20
11387;DHT22;5748;53.102;8.456;2023-04-06T00:51:43;6.00;32.70
11387;DHT22;5748;53.102;8.456;2023-04-06T00:54:10;5.90;32.60
11387;DHT22;5748;53.102;8.456;2023-04-06T00:56:39;5.90;32.60
11387;DHT22;5748;53.102;8.456;2023-04-06T00:59:06;5.90;32.80
11387;DHT22;5748;53.102;8.456;2023-04-06T01:01:33;5.90;32.80
11387;DHT22;5748;53.102;8.456;2023-04-06T01:04:00;5.90;32.70
11387;DHT22;5748;53.102;8.456;2023-04-06T01:06:28;5.80;32.80
11387;DHT22;5748;53.102;8.456;2023-04-06T01:08:55;5.80;32.80
11387;DHT22;5748;53.102;8.456;2023-04-06T01:11:22;5.80;32.70
11387;DHT22;5748;53.102;8.456;2023-04-06T01:13:51;5.70;32.60
11387;DHT22;5748;53.102;8.456;2023-04-06T01:16:37;5.70;32.90
11387;DHT22;5748;53.102;8.456;2023-04-06T01:19:07;5.70;33.70
11387;DHT22;5748;53.102;8.456;2023-04-06T01:21:35;5.60;33.00
11387;DHT22;5748;53.102;8.456;2023-04-06T01:24:04;5.60;32.80
11387;DHT22;5748;53.102;8.456;2023-04-06T01:26:33;5.60;33.00
11387;DHT22;5748;53.102;8.456;2023-04-06T01:29:01;6.00;33.40
11387;DHT22;5748;53.102;8.456;2023-04-06T01:31:29;5.50;32.90
11387;DHT22;5748;53.102;8.456;2023-04-06T01:33:56;5.50;33.00
11387;DHT22;5748;53.102;8.456;2023-04-06T01:36:23;5.60;33.10
11387;DHT22;5748;53.102;8.456;2023-04-06T01:38:50;5.40;33.00
11387;DHT22;5748;53.102;8.456;2023-04-06T01:41:19;5.50;33.10
11387;DHT22;5748;53.102;8.456;2023-04-06T01:43:47;5.40;33.30
11387;DHT22;5748;53.102;8.456;2023-04-06T01:46:14;5.30;33.30
11387;DHT22;5748;53.102;8.456;2023-04-06T01:48:41;5.30;33.30
11387;DHT22;5748;53.102;8.456;2023-04-06T01:51:08;5.60;33.50
11387;DHT22;5748;53.102;8.456;2023-04-06T01:53:35;5.30;33.30
11387;DHT22;5748;53.102;8.456;2023-04-06T01:56:03;5.30;33.30
11387;DHT22;5748;53.102;8.456;2023-04-06T01:58:32;5.20;33.30
11387;DHT22;5748;53.102;8.456;2023-04-06T02:00:59;5.20;34.10
11387;DHT22;5748;53.102;8.456;2023-04-06T02:03:26;5.20;33.50
11387;DHT22;5748;53.102;8.456;2023-04-06T02:05:53;3.30;32.00
11387;DHT22;5748;53.102;8.456;2023-04-06T02:08:20;5.10;34.10
11387;DHT22;5748;53.102;8.456;2023-04-06T02:10:52;5.70;34.00
11387;DHT22;5748;53.102;8.456;2023-04-06T02:13:19;5.10;33.90
11387;DHT22;5748;53.102;8.456;2023-04-06T02:15:47;5.10;33.60
11387;DHT22;5748;53.102;8.456;2023-04-06T02:18:15;5.30;33.90
11387;DHT22;5748;53.102;8.456;2023-04-06T02:20:43;5.00;33.80
11387;DHT22;5748;53.102;8.456;2023-04-06T02:23:10;5.00;33.80
11387;DHT22;5748;53.102;8.456;2023-04-06T02:25:37;5.00;33.80
11387;DHT22;5748;53.102;8.456;2023-04-06T02:28:04;5.00;33.70
11387;DHT22;5748;53.102;8.456;2023-04-06T02:30:31;5.60;34.20
11387;DHT22;5748;53.102;8.456;2023-04-06T02:33:00;5.30;34.10
11387;DHT22;5748;53.102;8.456;2023-04-06T02:35:28;4.90;34.00
11387;DHT22;5748;53.102;8.456;2023-04-06T02:37:55;4.90;33.80
11387;DHT22;5748;53.102;8.456;2023-04-06T02:40:22;5.20;34.00
11387;DHT22;5748;53.102;8.456;2023-04-06T02:42:49;5.80;34.50
11387;DHT22;5748;53.102;8.456;2023-04-06T02:45:16;4.90;33.80
11387;DHT22;5748;53.102;8.456;2023-04-06T02:47:43;5.00;34.00
11387;DHT22;5748;53.102;8.456;2023-04-06T02:50:12;5.60;34.50
11387;DHT22;5748;53.102;8.456;2023-04-06T02:52:39;4.80;34.10
11387;DHT22;5748;53.102;8.456;2023-04-06T02:55:07;4.80;33.90
11387;DHT22;5748;53.102;8.456;2023-04-06T02:57:34;4.80;34.30
11387;DHT22;5748;53.102;8.456;2023-04-06T03:00:01;4.90;34.00
11387;DHT22;5748;53.102;8.456;2023-04-06T03:02:29;4.70;34.70
11387;DHT22;5748;53.102;8.456;2023-04-06T03:04:56;5.50;34.60
11387;DHT22;5748;53.102;8.456;2023-04-06T03:07:24;5.80;34.80
11387;DHT22;5748;53.102;8.456;2023-04-06T03:09:51;4.70;34.10
11387;DHT22;5748;53.102;8.456;2023-04-06T03:12:18;4.80;34.10
11387;DHT22;5748;53.102;8.456;2023-04-06T03:14:45;4.60;34.00
11387;DHT22;5748;53.102;8.456;2023-04-06T03:17:42;6.80;35.80
11387;DHT22;5748;53.102;8.456;2023-04-06T03:20:10;4.50;34.90
11387;DHT22;5748;53.102;8.456;2023-04-06T03:22:38;4.50;34.00
11387;DHT22;5748;53.102;8.456;2023-04-06T03:25:06;4.90;35.00
11387;DHT22;5748;53.102;8.456;2023-04-06T03:27:33;4.50;34.10
11387;DHT22;5748;53.102;8.456;2023-04-06T03:30:01;4.70;34.30
11387;DHT22;5748;53.102;8.456;2023-04-06T03:32:28;4.50;34.30
11387;DHT22;5748;53.102;8.456;2023-04-06T03:34:55;4.40;34.20
11387;DHT22;5748;53.102;8.456;2023-04-06T03:37:22;4.40;34.20
11387;DHT22;5748;53.102;8.456;2023-04-06T03:39:51;4.40;34.30
11387;DHT22;5748;53.102;8.456;2023-04-06T03:42:18;4.40;34.40
11387;DHT22;5748;53.102;8.456;2023-04-06T03:44:45;4.40;34.30
11387;DHT22;5748;53.102;8.456;2023-04-06T03:47:12;4.50;34.40
11387;DHT22;5748;53.102;8.456;2023-04-06T03:49:52;4.30;34.30
11387;DHT22;5748;53.102;8.456;2023-04-06T03:52:19;4.30;35.00
11387;DHT22;5748;53.102;8.456;2023-04-06T03:54:49;4.30;34.30
11387;DHT22;5748;53.102;8.456;2023-04-06T03:57:16;4.30;34.40
11387;DHT22;5748;53.102;8.456;2023-04-06T03:59:43;4.90;34.90
11387;DHT22;5748;53.102;8.456;2023-04-06T04:02:10;4.30;34.40
11387;DHT22;5748;53.102;8.456;2023-04-06T04:04:38;5.30;35.20
11387;DHT22;5748;53.102;8.456;2023-04-06T04:07:05;6.00;35.80
11387;DHT22;5748;53.102;8.456;2023-04-06T04:09:32;4.50;34.70
11387;DHT22;5748;53.102;8.456;2023-04-06T04:12:00;4.20;34.50
11387;DHT22;5748;53.102;8.456;2023-04-06T04:14:27;4.20;34.60
11387;DHT22;5748;53.102;8.456;2023-04-06T04:16:54;4.90;35.10
11387;DHT22;5748;53.102;8.456;2023-04-06T04:19:21;5.60;36.40
11387;DHT22;5748;53.102;8.456;2023-04-06T04:21:48;4.10;34.70
11387;DHT22;5748;53.102;8.456;2023-04-06T04:24:21;5.00;35.30
11387;DHT22;5748;53.102;8.456;2023-04-06T04:26:48;4.10;35.00
11387;DHT22;5748;53.102;8.456;2023-04-06T04:29:17;4.60;35.20
11387;DHT22;5748;53.102;8.456;2023-04-06T04:31:46;4.30;35.20
11387;DHT22;5748;53.102;8.456;2023-04-06T04:34:14;4.00;34.80
11387;DHT22;5748;53.102;8.456;2023-04-06T04:36:41;3.70;35.80
11387;DHT22;5748;53.102;8.456;2023-04-06T04:39:08;3.80;37.10
11387;DHT22;5748;53.102;8.456;2023-04-06T04:41:35;4.60;37.00
11387;DHT22;5748;53.102;8.456;2023-04-06T04:44:03;3.90;36.10
11387;DHT22;5748;53.102;8.456;2023-04-06T04:46:32;4.00;35.90
11387;DHT22;5748;53.102;8.456;2023-04-06T04:48:59;4.00;35.80
11387;DHT22;5748;53.102;8.456;2023-04-06T04:51:26;4.00;35.50
11387;DHT22;5748;53.102;8.456;2023-04-06T04:54:02;5.40;36.50
11387;DHT22;5748;53.102;8.456;2023-04-06T04:56:29;4.10;36.00
11387;DHT22;5748;53.102;8.456;2023-04-06T04:58:56;4.10;35.50
11387;DHT22;5748;53.102;8.456;2023-04-06T05:01:23;4.70;35.90
11387;DHT22;5748;53.102;8.456;2023-04-06T05:03:52;4.00;35.20
11387;DHT22;5748;53.102;8.456;2023-04-06T05:06:19;4.00;35.40
11387;DHT22;5748;53.102;8.456;2023-04-06T05:08:46;4.20;35.50
11387;DHT22;5748;53.102;8.456;2023-04-06T05:11:15;4.00;35.40
11387;DHT22;5748;53.102;8.456;2023-04-06T05:13:42;4.30;35.90
11387;DHT22;5748;53.102;8.456;2023-04-06T05:16:11;4.00;35.50
11387;DHT22;5748;53.102;8.456;2023-04-06T05:18:38;4.00;35.80
11387;DHT22;5748;53.102;8.456;2023-04-06T05:21:06;4.50;36.10
11387;DHT22;5748;53.102;8.456;2023-04-06T05:23:33;4.50;36.70
11387;DHT22;5748;53.102;8.456;2023-04-06T05:26:00;4.40;36.00
11387;DHT22;5748;53.102;8.456;2023-04-06T05:28:27;6.00;38.50
11387;DHT22;5748;53.102;8.456;2023-04-06T05:30:55;4.00;35.70
11387;DHT22;5748;53.102;8.456;2023-04-06T05:33:22;4.00;35.90
11387;DHT22;5748;53.102;8.456;2023-04-06T05:35:49;4.10;36.00
11387;DHT22;5748;53.102;8.456;2023-04-06T05:38:17;4.00;35.90
11387;DHT22;5748;53.102;8.456;2023-04-06T05:40:45;4.10;36.00
11387;DHT22;5748;53.102;8.456;2023-04-06T05:43:12;4.10;36.10
11387;DHT22;5748;53.102;8.456;2023-04-06T05:45:39;4.90;36.70
11387;DHT22;5748;53.102;8.456;2023-04-06T05:48:06;4.10;36.10
11387;DHT22;5748;53.102;8.456;2023-04-06T05:50:33;4.30;36.40
11387;DHT22;5748;53.102;8.456;2023-04-06T05:53:00;4.20;36.50
11387;DHT22;5748;53.102;8.456;2023-04-06T05:55:29;5.00;37.00
11387;DHT22;5748;53.102;8.456;2023-04-06T05:57:56;4.30;36.80
11387;DHT22;5748;53.102;8.456;2023-04-06T06:00:23;4.30;36.40
11387;DHT22;5748;53.102;8.456;2023-04-06T06:02:51;4.40;37.10
11387;DHT22;5748;53.102;8.456;2023-04-06T06:05:18;5.60;37.90
11387;DHT22;5748;53.102;8.456;2023-04-06T06:07:45;5.20;37.40
11387;DHT22;5748;53.102;8.456;2023-04-06T06:10:13;4.50;37.10
11387;DHT22;5748;53.102;8.456;2023-04-06T06:12:41;4.60;37.50
11387;DHT22;5748;53.102;8.456;2023-04-06T06:15:09;6.50;40.20
11387;DHT22;5748;53.102;8.456;2023-04-06T06:17:37;4.70;38.50
11387;DHT22;5748;53.102;8.456;2023-04-06T06:20:11;5.00;38.30
11387;DHT22;5748;53.102;8.456;2023-04-06T06:22:40;4.90;38.80
11387;DHT22;5748;53.102;8.456;2023-04-06T06:25:08;5.10;39.40
11387;DHT22;5748;53.102;8.456;2023-04-06T06:27:35;5.20;39.50
11387;DHT22;5748;53.102;8.456;2023-04-06T06:30:05;5.30;39.40
11387;DHT22;5748;53.102;8.456;2023-04-06T06:32:32;5.50;40.10
11387;DHT22;5748;53.102;8.456;2023-04-06T06:34:59;5.70;39.10
11387;DHT22;5748;53.102;8.456;2023-04-06T06:37:27;5.70;39.00
11387;DHT22;5748;53.102;8.456;2023-04-06T06:40:12;6.20;39.60
11387;DHT22;5748;53.102;8.456;2023-04-06T06:42:41;6.10;40.80
11387;DHT22;5748;53.102;8.456;2023-04-06T06:45:12;6.20;39.40
11387;DHT22;5748;53.102;8.456;2023-04-06T06:47:39;6.40;39.50
11387;DHT22;5748;53.102;8.456;2023-04-06T06:50:07;6.50;39.40
11387;DHT22;5748;53.102;8.456;2023-04-06T06:52:34;6.70;39.20
11387;DHT22;5748;53.102;8.456;2023-04-06T06:55:01;6.90;39.70
11387;DHT22;5748;53.102;8.456;2023-04-06T06:57:29;7.00;39.40
11387;DHT22;5748;53.102;8.456;2023-04-06T06:59:56;7.20;38.80
11387;DHT22;5748;53.102;8.456;2023-04-06T07:02:26;7.30;38.60
11387;DHT22;5748;53.102;8.456;2023-04-06T07:04:54;7.50;38.30
11387;DHT22;5748;53.102;8.456;2023-04-06T07:07:21;7.70;39.90
11387;DHT22;5748;53.102;8.456;2023-04-06T07:09:48;7.80;39.00
11387;DHT22;5748;53.102;8.456;2023-04-06T07:12:15;7.90;38.50
11387;DHT22;5748;53.102;8.456;2023-04-06T07:14:43;8.10;38.80
11387;DHT22;5748;53.102;8.456;2023-04-06T07:17:10;8.30;38.50
11387;DHT22;5748;53.102;8.456;2023-04-06T07:19:38;10.70;39.20
11387;DHT22;5748;53.102;8.456;2023-04-06T07:22:06;8.60;38.30
11387;DHT22;5748;53.102;8.456;2023-04-06T07:24:33;8.80;38.50
11387;DHT22;5748;53.102;8.456;2023-04-06T07:27:00;9.70;39.20
11387;DHT22;5748;53.102;8.456;2023-04-06T07:29:27;9.70;38.50
11387;DHT22;5748;53.102;8.456;2023-04-06T07:31:54;9.30;38.10
11387;DHT22;5748;53.102;8.456;2023-04-06T07:34:22;9.50;38.80
11387;DHT22;5748;53.102;8.456;2023-04-06T07:36:50;9.60;38.40
11387;DHT22;5748;53.102;8.456;2023-04-06T07:39:19;11.20;38.40
11387;DHT22;5748;53.102;8.456;2023-04-06T07:41:46;10.10;37.50
11387;DHT22;5748;53.102;8.456;2023-04-06T07:44:13;10.30;37.30
11387;DHT22;5748;53.102;8.456;2023-04-06T07:46:40;10.60;37.70
11387;DHT22;5748;53.102;8.456;2023-04-06T07:49:07;11.50;38.10
11387;DHT22;5748;53.102;8.456;2023-04-06T07:51:36;12.50;38.60
11387;DHT22;5748;53.102;8.456;2023-04-06T07:54:04;11.50;37.30
11387;DHT22;5748;53.102;8.456;2023-04-06T07:56:32;11.80;37.20
11387;DHT22;5748;53.102;8.456;2023-04-06T07:58:59;12.00;37.40
11387;DHT22;5748;53.102;8.456;2023-04-06T08:01:27;12.40;37.50
11387;DHT22;5748;53.102;8.456;2023-04-06T08:03:55;12.70;37.90
11387;DHT22;5748;53.102;8.456;2023-04-06T08:06:22;13.10;38.00
11387;DHT22;5748;53.102;8.456;2023-04-06T08:08:49;13.50;38.30
11387;DHT22;5748;53.102;8.456;2023-04-06T08:11:18;14.00;38.30
11387;DHT22;5748;53.102;8.456;2023-04-06T08:13:45;14.50;38.90
11387;DHT22;5748;53.102;8.456;2023-04-06T08:16:12;15.00;37.60
11387;DHT22;5748;53.102;8.456;2023-04-06T08:18:40;15.50;38.90
11387;DHT22;5748;53.102;8.456;2023-04-06T08:21:07;15.90;38.70
11387;DHT22;5748;53.102;8.456;2023-04-06T08:23:34;16.50;39.10
11387;DHT22;5748;53.102;8.456;2023-04-06T08:26:01;17.00;38.40
11387;DHT22;5748;53.102;8.456;2023-04-06T08:28:30;17.60;38.40
11387;DHT22;5748;53.102;8.456;2023-04-06T08:30:57;18.10;38.60
11387;DHT22;5748;53.102;8.456;2023-04-06T08:33:24;18.70;38.40
11387;DHT22;5748;53.102;8.456;2023-04-06T08:35:52;19.20;38.20
11387;DHT22;5748;53.102;8.456;2023-04-06T08:38:19;19.60;37.40
11387;DHT22;5748;53.102;8.456;2023-04-06T08:40:46;20.00;37.10
11387;DHT22;5748;53.102;8.456;2023-04-06T08:43:17;20.40;37.00
11387;DHT22;5748;53.102;8.456;2023-04-06T08:45:46;20.80;35.50
11387;DHT22;5748;53.102;8.456;2023-04-06T08:48:15;21.10;35.50
11387;DHT22;5748;53.102;8.456;2023-04-06T08:50:42;21.40;36.00
11387;DHT22;5748;53.102;8.456;2023-04-06T08:53:11;21.60;34.70
11387;DHT22;5748;53.102;8.456;2023-04-06T08:55:39;21.80;34.70
11387;DHT22;5748;53.102;8.456;2023-04-06T08:58:07;22.10;34.80
11387;DHT22;5748;53.102;8.456;2023-04-06T09:00:38;22.30;33.40
11387;DHT22;5748;53.102;8.456;2023-04-06T09:03:07;22.40;32.80
11387;DHT22;5748;53.102;8.456;2023-04-06T09:05:35;22.50;32.10
11387;DHT22;5748;53.102;8.456;2023-04-06T09:08:02;22.60;32.80
11387;DHT22;5748;53.102;8.456;2023-04-06T09:10:29;22.80;33.50
11387;DHT22;5748;53.102;8.456;2023-04-06T09:13:04;22.90;32.50
11387;DHT22;5748;53.102;8.456;2023-04-06T09:15:31;23.00;31.80
11387;DHT22;5748;53.102;8.456;2023-04-06T09:17:59;23.10;32.90
11387;DHT22;5748;53.102;8.456;2023-04-06T09:20:27;23.20;32.60
11387;DHT22;5748;53.102;8.456;2023-04-06T09:22:55;23.40;31.10
11387;DHT22;5748;53.102;8.456;2023-04-06T09:25:24;23.50;30.90
11387;DHT22;5748;53.102;8.456;2023-04-06T09:27:58;23.60;31.70
11387;DHT22;5748;53.102;8.456;2023-04-06T09:30:26;23.80;31.50
11387;DHT22;5748;53.102;8.456;2023-04-06T09:32:55;24.00;31.10
11387;DHT22;5748;53.102;8.456;2023-04-06T09:35:23;24.20;32.00
11387;DHT22;5748;53.102;8.456;2023-04-06T09:37:53;24.40;32.00
11387;DHT22;5748;53.102;8.456;2023-04-06T09:40:20;24.70;32.40
11387;DHT22;5748;53.102;8.456;2023-04-06T09:42:48;25.00;32.30
11387;DHT22;5748;53.102;8.456;2023-04-06T09:45:17;25.30;32.50
11387;DHT22;5748;53.102;8.456;2023-04-06T09:47:46;25.60;32.70
11387;DHT22;5748;53.102;8.456;2023-04-06T09:50:14;25.90;30.70
11387;DHT22;5748;53.102;8.456;2023-04-06T09:52:46;26.10;31.20
11387;DHT22;5748;53.102;8.456;2023-04-06T09:55:22;26.20;31.20
11387;DHT22;5748;53.102;8.456;2023-04-06T09:58:00;26.40;30.50
11387;DHT22;5748;53.102;8.456;2023-04-06T10:00:32;26.60;30.00
11387;DHT22;5748;53.102;8.456;2023-04-06T10:03:14;26.70;29.80
11387;DHT22;5748;53.102;8.456;2023-04-06T10:05:52;26.80;29.30
11387;DHT22;5748;53.102;8.456;2023-04-06T10:08:24;26.90;29.80
11387;DHT22;5748;53.102;8.456;2023-04-06T10:10:55;26.90;29.20
11387;DHT22;5748;53.102;8.456;2023-04-06T10:13:23;27.00;28.90
11387;DHT22;5748;53.102;8.456;2023-04-06T10:15:52;27.10;29.40
11387;DHT22;5748;53.102;8.456;2023-04-06T10:18:19;27.20;29.40
11387;DHT22;5748;53.102;8.456;2023-04-06T10:20:49;27.20;29.10
11387;DHT22;5748;53.102;8.456;2023-04-06T10:23:22;27.30;28.90
11387;DHT22;5748;53.102;8.456;2023-04-06T10:25:55;27.40;28.40
11387;DHT22;5748;53.102;8.456;2023-04-06T10:28:23;27.50;28.00
11387;DHT22;5748;53.102;8.456;2023-04-06T10:30:57;27.50;27.90
11387;DHT22;5748;53.102;8.456;2023-04-06T10:33:24;27.60;27.50
11387;DHT22;5748;53.102;8.456;2023-04-06T10:35:52;27.50;27.20
11387;DHT22;5748;53.102;8.456;2023-04-06T10:38:19;27.50;27.70
11387;DHT22;5748;53.102;8.456;2023-04-06T10:40:48;27.50;27.40
11387;DHT22;5748;53.102;8.456;2023-04-06T10:43:20;27.40;27.60
11387;DHT22;5748;53.102;8.456;2023-04-06T10:45:55;27.40;27.60
11387;DHT22;5748;53.102;8.456;2023-04-06T10:48:23;27.50;27.60
11387;DHT22;5748;53.102;8.456;2023-04-06T10:50:52;27.50;27.00
11387;DHT22;5748;53.102;8.456;2023-04-06T10:53:23;27.60;27.60
11387;DHT22;5748;53.102;8.456;2023-04-06T10:55:52;27.80;27.90
11387;DHT22;5748;53.102;8.456;2023-04-06T10:58:38;27.90;27.60
11387;DHT22;5748;53.102;8.456;2023-04-06T11:01:11;28.10;26.10
11387;DHT22;5748;53.102;8.456;2023-04-06T11:03:43;28.20;27.60
11387;DHT22;5748;53.102;8.456;2023-04-06T11:06:10;28.30;27.20
11387;DHT22;5748;53.102;8.456;2023-04-06T11:08:48;28.50;27.50
11387;DHT22;5748;53.102;8.456;2023-04-06T11:11:17;28.60;26.90
11387;DHT22;5748;53.102;8.456;2023-04-06T11:13:49;28.80;26.20
11387;DHT22;5748;53.102;8.456;2023-04-06T11:16:19;28.90;26.70
11387;DHT22;5748;53.102;8.456;2023-04-06T11:18:52;28.90;26.90
11387;DHT22;5748;53.102;8.456;2023-04-06T11:21:32;28.90;25.70
11387;DHT22;5748;53.102;8.456;2023-04-06T11:24:08;29.00;26.10
11387;DHT22;5748;53.102;8.456;2023-04-06T11:26:40;29.00;25.70
11387;DHT22;5748;53.102;8.456;2023-04-06T11:29:27;29.00;26.10
11387;DHT22;5748;53.102;8.456;2023-04-06T11:31:58;29.00;25.00
11387;DHT22;5748;53.102;8.456;2023-04-06T11:34:29;29.00;25.90
11387;DHT22;5748;53.102;8.456;2023-04-06T11:36:58;29.10;26.30
11387;DHT22;5748;53.102;8.456;2023-04-06T11:39:28;29.20;25.50
11387;DHT22;5748;53.102;8.456;2023-04-06T11:41:58;29.30;25.50
11387;DHT22;5748;53.102;8.456;2023-04-06T11:44:32;29.50;25.60
11387;DHT22;5748;53.102;8.456;2023-04-06T11:47:01;29.60;25.10
11387;DHT22;5748;53.102;8.456;2023-04-06T11:49:28;29.80;25.70
11387;DHT22;5748;53.102;8.456;2023-04-06T11:51:56;30.00;25.70
11387;DHT22;5748;53.102;8.456;2023-04-06T11:54:30;30.10;25.00
11387;DHT22;5748;53.102;8.456;2023-04-06T11:56:58;30.20;24.50
11387;DHT22;5748;53.102;8.456;2023-04-06T11:59:26;30.30;24.90
11387;DHT22;5748;53.102;8.456;2023-04-06T12:01:54;30.40;24.90
11387;DHT22;5748;53.102;8.456;2023-04-06T12:04:22;30.60;24.60
11387;DHT22;5748;53.102;8.456;2023-04-06T12:06:49;30.80;24.10
11387;DHT22;5748;53.102;8.456;2023-04-06T12:09:18;30.90;23.70
11387;DHT22;5748;53.102;8.456;2023-04-06T12:11:46;30.90;23.20
11387;DHT22;5748;53.102;8.456;2023-04-06T12:14:13;31.00;23.20
11387;DHT22;5748;53.102;8.456;2023-04-06T12:16:41;31.00;23.10
11387;DHT22;5748;53.102;8.456;2023-04-06T12:19:10;31.10;23.70
11387;DHT22;5748;53.102;8.456;2023-04-06T12:21:48;31.10;22.90
11387;DHT22;5748;53.102;8.456;2023-04-06T12:24:15;31.10;21.90
11387;DHT22;5748;53.102;8.456;2023-04-06T12:26:42;31.10;22.50
11387;DHT22;5748;53.102;8.456;2023-04-06T12:29:10;31.10;22.80
11387;DHT22;5748;53.102;8.456;2023-04-06T12:31:39;31.10;23.10
11387;DHT22;5748;53.102;8.456;2023-04-06T12:37:54;31.50;22.50
11387;DHT22;5748;53.102;8.456;2023-04-06T12:40:38;31.50;23.60
11387;DHT22;5748;53.102;8.456;2023-04-06T12:43:37;30.40;22.80
11387;DHT22;5748;53.102;8.456;2023-04-06T12:46:42;32.10;22.50
11387;DHT22;5748;53.102;8.456;2023-04-06T12:49:12;32.30;22.00
11387;DHT22;5748;53.102;8.456;2023-04-06T12:51:59;32.20;22.80
11387;DHT22;5748;53.102;8.456;2023-04-06T12:54:32;32.30;22.00
11387;DHT22;5748;53.102;8.456;2023-04-06T12:57:05;32.20;23.50
11387;DHT22;5748;53.102;8.456;2023-04-06T12:59:43;32.10;22.50
11387;DHT22;5748;53.102;8.456;2023-04-06T13:02:31;32.40;23.10
11387;DHT22;5748;53.102;8.456;2023-04-06T13:07:47;32.50;22.20
11387;DHT22;5748;53.102;8.456;2023-04-06T13:10:36;33.00;23.10
11387;DHT22;5748;53.102;8.456;2023-04-06T13:13:24;32.70;21.40
11387;DHT22;5748;53.102;8.456;2023-04-06T13:16:17;32.30;20.70
11387;DHT22;5748;53.102;8.456;2023-04-06T13:19:12;34.00;21.60
11387;DHT22;5748;53.102;8.456;2023-04-06T13:21:46;31.90;20.60
11387;DHT22;5748;53.102;8.456;2023-04-06T13:24:24;31.90;21.70
11387;DHT22;5748;53.102;8.456;2023-04-06T13:26:51;31.60;21.30
11387;DHT22;5748;53.102;8.456;2023-04-06T13:29:26;31.80;21.30
11387;DHT22;5748;53.102;8.456;2023-04-06T13:31:58;31.20;21.10
11387;DHT22;5748;53.102;8.456;2023-04-06T13:34:25;31.00;22.50
11387;DHT22;5748;53.102;8.456;2023-04-06T13:36:53;30.80;21.40
11387;DHT22;5748;53.102;8.456;2023-04-06T13:39:20;30.60;21.60
11387;DHT22;5748;53.102;8.456;2023-04-06T13:41:48;30.60;21.70
11387;DHT22;5748;53.102;8.456;2023-04-06T13:44:16;30.50;21.00
11387;DHT22;5748;53.102;8.456;2023-04-06T13:46:43;30.50;21.20
11387;DHT22;5748;53.102;8.456;2023-04-06T13:49:10;30.40;21.20
11387;DHT22;5748;53.102;8.456;2023-04-06T13:51:37;30.30;20.80
11387;DHT22;5748;53.102;8.456;2023-04-06T13:54:04;30.20;21.00
11387;DHT22;5748;53.102;8.456;2023-04-06T13:56:31;30.00;20.60
11387;DHT22;5748;53.102;8.456;2023-04-06T13:59:00;29.80;21.30
11387;DHT22;5748;53.102;8.456;2023-04-06T14:01:27;29.70;21.10
11387;DHT22;5748;53.102;8.456;2023-04-06T14:03:54;29.60;21.10
11387;DHT22;5748;53.102;8.456;2023-04-06T14:06:21;29.50;21.00
11387;DHT22;5748;53.102;8.456;2023-04-06T14:08:48;29.30;20.90
11387;DHT22;5748;53.102;8.456;2023-04-06T14:11:15;29.00;20.90
11387;DHT22;5748;53.102;8.456;2023-04-06T14:13:42;28.80;21.20
11387;DHT22;5748;53.102;8.456;2023-04-06T14:16:11;28.40;20.60
11387;DHT22;5748;53.102;8.456;2023-04-06T14:18:38;28.10;20.70
11387;DHT22;5748;53.102;8.456;2023-04-06T14:21:05;27.80;20.80
11387;DHT22;5748;53.102;8.456;2023-04-06T14:23:32;27.50;20.70
11387;DHT22;5748;53.102;8.456;2023-04-06T14:26:01;27.00;21.20
11387;DHT22;5748;53.102;8.456;2023-04-06T14:28:29;26.70;20.90
11387;DHT22;5748;53.102;8.456;2023-04-06T14:30:56;26.30;20.80
11387;DHT22;5748;53.102;8.456;2023-04-06T14:33:27;25.90;20.90
11387;DHT22;5748;53.102;8.456;2023-04-06T14:35:54;25.60;21.10
11387;DHT22;5748;53.102;8.456;2023-04-06T14:38:21;25.20;21.10
11387;DHT22;5748;53.102;8.456;2023-04-06T14:40:48;24.90;21.30
11387;DHT22;5748;53.102;8.456;2023-04-06T14:43:17;24.70;21.30
11387;DHT22;5748;53.102;8.456;2023-04-06T14:45:44;24.40;21.30
11387;DHT22;5748;53.102;8.456;2023-04-06T14:48:12;24.20;21.50
11387;DHT22;5748;53.102;8.456;2023-04-06T14:50:53;24.00;21.60
11387;DHT22;5748;53.102;8.456;2023-04-06T14:53:20;23.90;21.80
11387;DHT22;5748;53.102;8.456;2023-04-06T14:55:47;23.80;21.80
11387;DHT22;5748;53.102;8.456;2023-04-06T14:58:16;23.70;21.80
11387;DHT22;5748;53.102;8.456;2023-04-06T15:00:44;23.60;21.90
11387;DHT22;5748;53.102;8.456;2023-04-06T15:03:11;23.60;21.90
11387;DHT22;5748;53.102;8.456;2023-04-06T15:05:38;23.50;22.00
11387;DHT22;5748;53.102;8.456;2023-04-06T15:08:06;23.50;22.00
11387;DHT22;5748;53.102;8.456;2023-04-06T15:10:34;23.60;22.20
11387;DHT22;5748;53.102;8.456;2023-04-06T15:13:02;23.70;22.30
11387;DHT22;5748;53.102;8.456;2023-04-06T15:15:29;23.80;22.40
11387;DHT22;5748;53.102;8.456;2023-04-06T15:17:56;23.90;22.50
11387;DHT22;5748;53.102;8.456;2023-04-06T15:20:23;24.00;22.40
11387;DHT22;5748;53.102;8.456;2023-04-06T15:22:51;24.10;22.60
11387;DHT22;5748;53.102;8.456;2023-04-06T15:25:20;24.10;22.30
11387;DHT22;5748;53.102;8.456;2023-04-06T15:27:47;24.10;22.40
11387;DHT22;5748;53.102;8.456;2023-04-06T15:32:52;23.90;21.60
11387;DHT22;5748;53.102;8.456;2023-04-06T15:35:23;23.70;22.00
11387;DHT22;5748;53.102;8.456;2023-04-06T15:38:12;23.20;21.60
11387;DHT22;5748;53.102;8.456;2023-04-06T15:40:44;23.00;22.70
11387;DHT22;5748;53.102;8.456;2023-04-06T15:43:28;22.90;23.00
11387;DHT22;5748;53.102;8.456;2023-04-06T15:46:01;22.80;23.20
11387;DHT22;5748;53.102;8.456;2023-04-06T15:48:31;22.10;21.80
11387;DHT22;5748;53.102;8.456;2023-04-06T15:50:59;21.80;21.90
11387;DHT22;5748;53.102;8.456;2023-04-06T15:54:00;21.90;23.30
11387;DHT22;5748;53.102;8.456;2023-04-06T15:56:56;22.00;24.10
11387;DHT22;5748;53.102;8.456;2023-04-06T16:01:50;21.30;22.10
11387;DHT22;5748;53.102;8.456;2023-04-06T16:06:57;20.90;22.20
11387;DHT22;5748;53.102;8.456;2023-04-06T16:09:29;20.70;23.30
11387;DHT22;5748;53.102;8.456;2023-04-06T16:11:57;20.60;23.40
11387;DHT22;5748;53.102;8.456;2023-04-06T16:14:26;20.50;23.90
11387;DHT22;5748;53.102;8.456;2023-04-06T16:16:53;20.30;23.70
11387;DHT22;5748;53.102;8.456;2023-04-06T16:19:22;20.40;23.20
11387;DHT22;5748;53.102;8.456;2023-04-06T16:24:20;20.10;22.50